sensor_id;sensor_type;location;lat;lon;timestamp;temperature;humidity
19050;DHT22;9657;45.940;12.840;2022-10-16T00:01:05;21.60;61.10
19050;DHT22;9657;45.940;12.840;2022-10-16T00:03:32;21.60;61.10
19050;DHT22;9657;45.940;12.840;2022-10-16T00:06:00;21.60;61.10
19050;DHT22;9657;45.940;12.840;2022-10-16T00:08:28;21.60;61.10
19050;DHT22;9657;45.940;12.840;2022-10-16T00:10:59;21.60;61.90
19050;DHT22;9657;45.940;12.840;2022-10-16T00:13:26;21.60;61.10
19050;DHT22;9657;45.940;12.840;2022-10-16T00:15:57;21.60;61.10
19050;DHT22;9657;45.940;12.840;2022-10-16T00:18:24;21.60;61.10
19050;DHT22;9657;45.940;12.840;2022-10-16T00:20:52;21.60;61.10
19050;DHT22;9657;45.940;12.840;2022-10-16T00:23:19;21.60;61.10
19050;DHT22;9657;45.940;12.840;2022-10-16T00:25:55;21.60;61.10
19050;DHT22;9657;45.940;12.840;2022-10-16T00:28:22;21.60;61.10
19050;DHT22;9657;45.940;12.840;2022-10-16T00:30:49;21.60;61.10
19050;DHT22;9657;45.940;12.840;2022-10-16T00:33:18;21.60;61.20
19050;DHT22;9657;45.940;12.840;2022-10-16T00:35:45;21.60;61.10
19050;DHT22;9657;45.940;12.840;2022-10-16T00:38:12;21.50;61.10
19050;DHT22;9657;45.940;12.840;2022-10-16T00:40:40;21.50;61.10
19050;DHT22;9657;45.940;12.840;2022-10-16T00:43:12;21.50;61.10
19050;DHT22;9657;45.940;12.840;2022-10-16T00:45:41;21.60;61.10
19050;DHT22;9657;45.940;12.840;2022-10-16T00:48:11;21.60;61.10
19050;DHT22;9657;45.940;12.840;2022-10-16T00:50:41;21.50;61.00
19050;DHT22;9657;45.940;12.840;2022-10-16T00:53:10;21.60;61.10
19050;DHT22;9657;45.940;12.840;2022-10-16T00:55:38;21.50;61.00
19050;DHT22;9657;45.940;12.840;2022-10-16T00:58:06;21.50;61.00
19050;DHT22;9657;45.940;12.840;2022-10-16T01:03:23;21.60;61.10
19050;DHT22;9657;45.940;12.840;2022-10-16T01:06:06;21.50;61.10
19050;DHT22;9657;45.940;12.840;2022-10-16T01:08:46;21.50;61.00
19050;DHT22;9657;45.940;12.840;2022-10-16T01:11:22;21.50;61.00
19050;DHT22;9657;45.940;12.840;2022-10-16T01:13:54;21.50;61.00
19050;DHT22;9657;45.940;12.840;2022-10-16T01:16:29;21.60;61.10
19050;DHT22;9657;45.940;12.840;2022-10-16T01:19:04;21.60;61.10
19050;DHT22;9657;45.940;12.840;2022-10-16T01:21:38;21.60;61.10
19050;DHT22;9657;45.940;12.840;2022-10-16T01:24:11;21.50;61.00
19050;DHT22;9657;45.940;12.840;2022-10-16T01:27:11;21.50;61.00
19050;DHT22;9657;45.940;12.840;2022-10-16T01:29:44;21.50;61.00
19050;DHT22;9657;45.940;12.840;2022-10-16T01:32:18;21.60;61.10
19050;DHT22;9657;45.940;12.840;2022-10-16T01:34:50;21.60;61.10
19050;DHT22;9657;45.940;12.840;2022-10-16T01:37:27;21.50;61.00
19050;DHT22;9657;45.940;12.840;2022-10-16T01:39:58;21.60;61.10
19050;DHT22;9657;45.940;12.840;2022-10-16T01:42:32;21.50;61.00
19050;DHT22;9657;45.940;12.840;2022-10-16T01:45:01;21.60;61.10
19050;DHT22;9657;45.940;12.840;2022-10-16T01:47:32;21.50;61.00
19050;DHT22;9657;45.940;12.840;2022-10-16T01:50:02;21.50;61.10
19050;DHT22;9657;45.940;12.840;2022-10-16T01:52:33;21.50;61.00
19050;DHT22;9657;45.940;12.840;2022-10-16T01:55:03;21.60;61.10
19050;DHT22;9657;45.940;12.840;2022-10-16T01:57:34;21.50;61.00
19050;DHT22;9657;45.940;12.840;2022-10-16T02:00:07;21.50;61.10
19050;DHT22;9657;45.940;12.840;2022-10-16T02:02:35;21.50;61.00
19050;DHT22;9657;45.940;12.840;2022-10-16T02:05:08;21.50;61.00
19050;DHT22;9657;45.940;12.840;2022-10-16T02:07:37;21.50;61.00
19050;DHT22;9657;45.940;12.840;2022-10-16T02:10:05;21.50;61.00
19050;DHT22;9657;45.940;12.840;2022-10-16T02:12:35;21.50;61.00
19050;DHT22;9657;45.940;12.840;2022-10-16T02:15:05;21.60;61.10
19050;DHT22;9657;45.940;12.840;2022-10-16T02:17:33;21.60;61.10
19050;DHT22;9657;45.940;12.840;2022-10-16T02:20:00;21.50;61.10
19050;DHT22;9657;45.940;12.840;2022-10-16T02:22:29;21.50;61.00
19050;DHT22;9657;45.940;12.840;2022-10-16T02:25:03;21.50;61.00
19050;DHT22;9657;45.940;12.840;2022-10-16T02:27:35;21.60;61.10
19050;DHT22;9657;45.940;12.840;2022-10-16T02:30:07;21.50;61.00
19050;DHT22;9657;45.940;12.840;2022-10-16T02:32:39;21.50;61.00
19050;DHT22;9657;45.940;12.840;2022-10-16T02:35:08;21.50;61.00
19050;DHT22;9657;45.940;12.840;2022-10-16T02:37:36;21.50;61.00
19050;DHT22;9657;45.940;12.840;2022-10-16T02:40:06;21.50;61.00
19050;DHT22;9657;45.940;12.840;2022-10-16T02:42:36;21.50;61.00
19050;DHT22;9657;45.940;12.840;2022-10-16T02:45:04;21.50;61.00
19050;DHT22;9657;45.940;12.840;2022-10-16T02:47:31;21.50;61.00
19050;DHT22;9657;45.940;12.840;2022-10-16T02:49:59;21.50;61.00
19050;DHT22;9657;45.940;12.840;2022-10-16T02:52:26;21.50;61.00
19050;DHT22;9657;45.940;12.840;2022-10-16T02:54:53;21.50;61.00
19050;DHT22;9657;45.940;12.840;2022-10-16T02:57:20;21.50;61.10
19050;DHT22;9657;45.940;12.840;2022-10-16T02:59:48;21.50;61.00
19050;DHT22;9657;45.940;12.840;2022-10-16T03:02:15;21.50;61.00
19050;DHT22;9657;45.940;12.840;2022-10-16T03:04:42;21.50;61.00
19050;DHT22;9657;45.940;12.840;2022-10-16T03:07:09;21.50;61.00
19050;DHT22;9657;45.940;12.840;2022-10-16T03:09:36;21.50;61.10
19050;DHT22;9657;45.940;12.840;2022-10-16T03:12:04;21.50;61.00
19050;DHT22;9657;45.940;12.840;2022-10-16T03:14:31;21.50;61.00
19050;DHT22;9657;45.940;12.840;2022-10-16T03:16:59;21.50;61.00
19050;DHT22;9657;45.940;12.840;2022-10-16T03:19:26;21.50;61.00
19050;DHT22;9657;45.940;12.840;2022-10-16T03:21:53;21.50;61.00
19050;DHT22;9657;45.940;12.840;2022-10-16T03:24:20;21.50;61.00
19050;DHT22;9657;45.940;12.840;2022-10-16T03:26:47;21.50;61.00
19050;DHT22;9657;45.940;12.840;2022-10-16T03:29:14;21.50;61.00
19050;DHT22;9657;45.940;12.840;2022-10-16T03:31:41;21.50;61.00
19050;DHT22;9657;45.940;12.840;2022-10-16T03:34:10;21.50;61.00
19050;DHT22;9657;45.940;12.840;2022-10-16T03:36:37;21.50;61.00
19050;DHT22;9657;45.940;12.840;2022-10-16T03:39:04;21.40;60.90
19050;DHT22;9657;45.940;12.840;2022-10-16T03:41:31;21.50;61.00
19050;DHT22;9657;45.940;12.840;2022-10-16T03:43:58;21.50;61.00
19050;DHT22;9657;45.940;12.840;2022-10-16T03:46:25;21.50;61.00
19050;DHT22;9657;45.940;12.840;2022-10-16T03:48:52;21.50;61.00
19050;DHT22;9657;45.940;12.840;2022-10-16T03:51:21;21.50;61.00
19050;DHT22;9657;45.940;12.840;2022-10-16T03:53:48;21.40;60.90
19050;DHT22;9657;45.940;12.840;2022-10-16T03:56:15;21.50;61.00
19050;DHT22;9657;45.940;12.840;2022-10-16T03:58:42;21.50;61.00
19050;DHT22;9657;45.940;12.840;2022-10-16T04:01:09;21.40;61.00
19050;DHT22;9657;45.940;12.840;2022-10-16T04:03:36;21.40;61.00
19050;DHT22;9657;45.940;12.840;2022-10-16T04:06:03;21.50;61.00
19050;DHT22;9657;45.940;12.840;2022-10-16T04:08:31;21.40;61.00
19050;DHT22;9657;45.940;12.840;2022-10-16T04:11:00;21.40;60.90
19050;DHT22;9657;45.940;12.840;2022-10-16T04:13:27;21.50;61.00
19050;DHT22;9657;45.940;12.840;2022-10-16T04:15:54;21.50;61.00
19050;DHT22;9657;45.940;12.840;2022-10-16T04:18:21;21.50;61.00
19050;DHT22;9657;45.940;12.840;2022-10-16T04:20:49;21.40;61.00
19050;DHT22;9657;45.940;12.840;2022-10-16T04:23:16;21.50;61.00
19050;DHT22;9657;45.940;12.840;2022-10-16T04:25:44;21.50;61.00
19050;DHT22;9657;45.940;12.840;2022-10-16T04:28:11;21.50;61.00
19050;DHT22;9657;45.940;12.840;2022-10-16T04:30:39;21.40;61.00
19050;DHT22;9657;45.940;12.840;2022-10-16T04:33:07;21.50;61.90
19050;DHT22;9657;45.940;12.840;2022-10-16T04:35:34;21.50;61.00
19050;DHT22;9657;45.940;12.840;2022-10-16T04:38:02;21.50;61.00
19050;DHT22;9657;45.940;12.840;2022-10-16T04:40:29;21.40;61.00
19050;DHT22;9657;45.940;12.840;2022-10-16T04:42:59;21.50;61.10
19050;DHT22;9657;45.940;12.840;2022-10-16T04:45:26;21.50;61.10
19050;DHT22;9657;45.940;12.840;2022-10-16T04:47:56;21.40;61.00
19050;DHT22;9657;45.940;12.840;2022-10-16T04:50:24;21.50;61.10
19050;DHT22;9657;45.940;12.840;2022-10-16T04:52:51;21.50;61.10
19050;DHT22;9657;45.940;12.840;2022-10-16T04:55:18;21.50;61.00
19050;DHT22;9657;45.940;12.840;2022-10-16T04:57:45;21.50;61.00
19050;DHT22;9657;45.940;12.840;2022-10-16T05:00:13;21.40;61.00
19050;DHT22;9657;45.940;12.840;2022-10-16T05:02:40;21.40;61.00
19050;DHT22;9657;45.940;12.840;2022-10-16T05:05:08;21.50;61.10
19050;DHT22;9657;45.940;12.840;2022-10-16T05:07:35;21.50;61.10
19050;DHT22;9657;45.940;12.840;2022-10-16T05:10:02;21.40;61.00
19050;DHT22;9657;45.940;12.840;2022-10-16T05:12:30;21.40;61.00
19050;DHT22;9657;45.940;12.840;2022-10-16T05:14:57;21.40;61.00
19050;DHT22;9657;45.940;12.840;2022-10-16T05:17:25;21.40;61.00
19050;DHT22;9657;45.940;12.840;2022-10-16T05:19:52;21.40;61.10
19050;DHT22;9657;45.940;12.840;2022-10-16T05:22:19;21.40;61.00
19050;DHT22;9657;45.940;12.840;2022-10-16T05:24:46;21.40;61.00
19050;DHT22;9657;45.940;12.840;2022-10-16T05:27:14;21.40;61.00
19050;DHT22;9657;45.940;12.840;2022-10-16T05:29:45;21.40;61.00
19050;DHT22;9657;45.940;12.840;2022-10-16T05:32:12;21.40;61.00
19050;DHT22;9657;45.940;12.840;2022-10-16T05:34:41;21.40;61.00
19050;DHT22;9657;45.940;12.840;2022-10-16T05:37:08;21.40;61.00
19050;DHT22;9657;45.940;12.840;2022-10-16T05:39:37;21.40;61.00
19050;DHT22;9657;45.940;12.840;2022-10-16T05:42:04;21.40;61.00
19050;DHT22;9657;45.940;12.840;2022-10-16T05:44:31;21.40;61.10
19050;DHT22;9657;45.940;12.840;2022-10-16T05:46:59;21.40;61.10
19050;DHT22;9657;45.940;12.840;2022-10-16T05:49:26;21.40;61.10
19050;DHT22;9657;45.940;12.840;2022-10-16T05:51:54;21.40;61.10
19050;DHT22;9657;45.940;12.840;2022-10-16T05:54:21;21.40;61.10
19050;DHT22;9657;45.940;12.840;2022-10-16T05:56:48;21.40;61.10
19050;DHT22;9657;45.940;12.840;2022-10-16T05:59:15;21.40;61.20
19050;DHT22;9657;45.940;12.840;2022-10-16T06:01:42;21.40;61.20
19050;DHT22;9657;45.940;12.840;2022-10-16T06:04:09;21.40;61.20
19050;DHT22;9657;45.940;12.840;2022-10-16T06:06:36;21.40;61.20
19050;DHT22;9657;45.940;12.840;2022-10-16T06:09:05;21.40;61.20
19050;DHT22;9657;45.940;12.840;2022-10-16T06:11:33;21.40;61.20
19050;DHT22;9657;45.940;12.840;2022-10-16T06:14:01;21.40;61.20
19050;DHT22;9657;45.940;12.840;2022-10-16T06:16:32;21.40;61.30
19050;DHT22;9657;45.940;12.840;2022-10-16T06:18:59;21.40;61.20
19050;DHT22;9657;45.940;12.840;2022-10-16T06:21:28;21.40;61.20
19050;DHT22;9657;45.940;12.840;2022-10-16T06:23:56;21.40;61.20
19050;DHT22;9657;45.940;12.840;2022-10-16T06:26:26;21.40;61.20
19050;DHT22;9657;45.940;12.840;2022-10-16T06:28:54;21.40;61.20
19050;DHT22;9657;45.940;12.840;2022-10-16T06:31:22;21.40;61.20
19050;DHT22;9657;45.940;12.840;2022-10-16T06:33:53;21.40;61.20
19050;DHT22;9657;45.940;12.840;2022-10-16T06:36:21;21.40;61.20
19050;DHT22;9657;45.940;12.840;2022-10-16T06:38:48;21.40;61.20
19050;DHT22;9657;45.940;12.840;2022-10-16T06:41:17;21.40;61.20
19050;DHT22;9657;45.940;12.840;2022-10-16T06:43:46;21.40;61.20
19050;DHT22;9657;45.940;12.840;2022-10-16T06:46:15;21.40;61.20
19050;DHT22;9657;45.940;12.840;2022-10-16T06:48:42;21.40;61.20
19050;DHT22;9657;45.940;12.840;2022-10-16T06:51:10;21.40;61.20
19050;DHT22;9657;45.940;12.840;2022-10-16T06:53:40;21.40;61.20
19050;DHT22;9657;45.940;12.840;2022-10-16T06:56:08;21.40;61.20
19050;DHT22;9657;45.940;12.840;2022-10-16T06:58:35;21.40;61.10
19050;DHT22;9657;45.940;12.840;2022-10-16T07:01:04;21.40;61.20
19050;DHT22;9657;45.940;12.840;2022-10-16T07:03:31;21.30;61.10
19050;DHT22;9657;45.940;12.840;2022-10-16T07:06:02;21.40;61.10
19050;DHT22;9657;45.940;12.840;2022-10-16T07:08:31;21.40;61.20
19050;DHT22;9657;45.940;12.840;2022-10-16T07:11:01;21.30;61.10
19050;DHT22;9657;45.940;12.840;2022-10-16T07:13:28;21.40;61.10
19050;DHT22;9657;45.940;12.840;2022-10-16T07:15:55;21.40;61.10
19050;DHT22;9657;45.940;12.840;2022-10-16T07:18:24;21.30;61.10
19050;DHT22;9657;45.940;12.840;2022-10-16T07:21:03;21.40;61.10
19050;DHT22;9657;45.940;12.840;2022-10-16T07:23:30;21.40;61.10
19050;DHT22;9657;45.940;12.840;2022-10-16T07:25:57;21.40;61.10
19050;DHT22;9657;45.940;12.840;2022-10-16T07:28:24;21.40;61.10
19050;DHT22;9657;45.940;12.840;2022-10-16T07:30:51;21.40;61.10
19050;DHT22;9657;45.940;12.840;2022-10-16T07:33:18;21.30;61.10
19050;DHT22;9657;45.940;12.840;2022-10-16T07:35:53;21.40;61.10
19050;DHT22;9657;45.940;12.840;2022-10-16T07:38:21;21.40;61.10
19050;DHT22;9657;45.940;12.840;2022-10-16T07:40:55;21.30;61.00
19050;DHT22;9657;45.940;12.840;2022-10-16T07:43:22;21.40;61.10
19050;DHT22;9657;45.940;12.840;2022-10-16T07:45:49;21.40;61.10
19050;DHT22;9657;45.940;12.840;2022-10-16T07:48:17;21.30;61.00
19050;DHT22;9657;45.940;12.840;2022-10-16T07:50:44;21.30;61.00
19050;DHT22;9657;45.940;12.840;2022-10-16T07:53:14;21.40;61.10
19050;DHT22;9657;45.940;12.840;2022-10-16T07:55:42;21.40;61.10
19050;DHT22;9657;45.940;12.840;2022-10-16T07:58:09;21.40;61.00
19050;DHT22;9657;45.940;12.840;2022-10-16T08:00:36;21.40;61.10
19050;DHT22;9657;45.940;12.840;2022-10-16T08:03:04;21.40;61.10
19050;DHT22;9657;45.940;12.840;2022-10-16T08:05:32;21.40;61.10
19050;DHT22;9657;45.940;12.840;2022-10-16T08:08:00;21.40;61.00
19050;DHT22;9657;45.940;12.840;2022-10-16T08:10:29;21.40;61.00
19050;DHT22;9657;45.940;12.840;2022-10-16T08:12:57;21.40;61.00
19050;DHT22;9657;45.940;12.840;2022-10-16T08:15:24;21.40;61.00
19050;DHT22;9657;45.940;12.840;2022-10-16T08:17:58;21.40;61.00
19050;DHT22;9657;45.940;12.840;2022-10-16T08:20:26;21.30;61.00
19050;DHT22;9657;45.940;12.840;2022-10-16T08:22:54;21.40;61.00
19050;DHT22;9657;45.940;12.840;2022-10-16T08:25:21;21.40;61.00
19050;DHT22;9657;45.940;12.840;2022-10-16T08:27:50;21.30;61.00
19050;DHT22;9657;45.940;12.840;2022-10-16T08:30:18;21.40;61.00
19050;DHT22;9657;45.940;12.840;2022-10-16T08:32:45;21.40;61.00
19050;DHT22;9657;45.940;12.840;2022-10-16T08:35:13;21.40;61.00
19050;DHT22;9657;45.940;12.840;2022-10-16T08:37:41;21.30;60.90
19050;DHT22;9657;45.940;12.840;2022-10-16T08:40:17;21.40;61.00
19050;DHT22;9657;45.940;12.840;2022-10-16T08:42:57;21.30;61.00
19050;DHT22;9657;45.940;12.840;2022-10-16T08:45:36;21.40;61.00
19050;DHT22;9657;45.940;12.840;2022-10-16T08:48:13;21.40;61.00
19050;DHT22;9657;45.940;12.840;2022-10-16T08:50:42;21.40;61.00
19050;DHT22;9657;45.940;12.840;2022-10-16T08:53:14;21.40;61.00
19050;DHT22;9657;45.940;12.840;2022-10-16T08:55:45;21.40;61.00
19050;DHT22;9657;45.940;12.840;2022-10-16T08:58:16;21.40;60.90
19050;DHT22;9657;45.940;12.840;2022-10-16T09:00:46;21.40;60.90
19050;DHT22;9657;45.940;12.840;2022-10-16T09:03:22;21.40;60.90
19050;DHT22;9657;45.940;12.840;2022-10-16T09:06:14;21.40;60.90
19050;DHT22;9657;45.940;12.840;2022-10-16T09:08:53;21.40;60.90
19050;DHT22;9657;45.940;12.840;2022-10-16T09:11:30;21.40;60.90
19050;DHT22;9657;45.940;12.840;2022-10-16T09:14:10;21.40;60.90
19050;DHT22;9657;45.940;12.840;2022-10-16T09:16:48;21.40;60.90
19050;DHT22;9657;45.940;12.840;2022-10-16T09:19:22;21.40;60.80
19050;DHT22;9657;45.940;12.840;2022-10-16T09:21:51;21.40;60.80
19050;DHT22;9657;45.940;12.840;2022-10-16T09:24:20;21.40;60.80
19050;DHT22;9657;45.940;12.840;2022-10-16T09:26:49;21.40;60.90
19050;DHT22;9657;45.940;12.840;2022-10-16T09:29:19;21.40;60.80
19050;DHT22;9657;45.940;12.840;2022-10-16T09:31:47;21.40;60.80
19050;DHT22;9657;45.940;12.840;2022-10-16T09:34:20;21.40;60.80
19050;DHT22;9657;45.940;12.840;2022-10-16T09:36:48;21.40;60.90
19050;DHT22;9657;45.940;12.840;2022-10-16T09:39:16;21.40;60.80
19050;DHT22;9657;45.940;12.840;2022-10-16T09:41:44;21.50;60.90
19050;DHT22;9657;45.940;12.840;2022-10-16T09:44:21;21.40;60.80
19050;DHT22;9657;45.940;12.840;2022-10-16T09:47:01;21.40;60.80
19050;DHT22;9657;45.940;12.840;2022-10-16T09:49:28;21.40;60.80
19050;DHT22;9657;45.940;12.840;2022-10-16T09:52:03;21.40;60.80
19050;DHT22;9657;45.940;12.840;2022-10-16T09:54:30;21.40;60.80
19050;DHT22;9657;45.940;12.840;2022-10-16T09:57:05;21.50;60.90
19050;DHT22;9657;45.940;12.840;2022-10-16T09:59:34;21.40;60.80
19050;DHT22;9657;45.940;12.840;2022-10-16T10:02:03;21.50;60.90
19050;DHT22;9657;45.940;12.840;2022-10-16T10:04:39;21.50;60.90
19050;DHT22;9657;45.940;12.840;2022-10-16T10:07:07;21.50;60.90
19050;DHT22;9657;45.940;12.840;2022-10-16T10:09:44;21.40;60.80
19050;DHT22;9657;45.940;12.840;2022-10-16T10:12:18;21.50;60.90
19050;DHT22;9657;45.940;12.840;2022-10-16T10:14:48;21.50;60.90
19050;DHT22;9657;45.940;12.840;2022-10-16T10:17:18;21.50;61.60
19050;DHT22;9657;45.940;12.840;2022-10-16T10:19:51;21.40;60.70
19050;DHT22;9657;45.940;12.840;2022-10-16T10:22:29;21.40;60.70
19050;DHT22;9657;45.940;12.840;2022-10-16T10:24:59;21.50;60.90
19050;DHT22;9657;45.940;12.840;2022-10-16T10:27:35;21.50;60.90
19050;DHT22;9657;45.940;12.840;2022-10-16T10:30:15;21.50;60.80
19050;DHT22;9657;45.940;12.840;2022-10-16T10:32:49;21.50;60.80
19050;DHT22;9657;45.940;12.840;2022-10-16T10:35:22;21.50;60.80
19050;DHT22;9657;45.940;12.840;2022-10-16T10:38:04;21.50;60.80
19050;DHT22;9657;45.940;12.840;2022-10-16T10:40:43;21.50;61.60
19050;DHT22;9657;45.940;12.840;2022-10-16T10:43:23;21.50;60.80
19050;DHT22;9657;45.940;12.840;2022-10-16T10:45:59;21.50;60.80
19050;DHT22;9657;45.940;12.840;2022-10-16T10:48:44;21.50;60.80
19050;DHT22;9657;45.940;12.840;2022-10-16T10:51:19;21.50;60.80
19050;DHT22;9657;45.940;12.840;2022-10-16T10:53:51;21.50;60.80
19050;DHT22;9657;45.940;12.840;2022-10-16T10:56:42;21.50;60.80
19050;DHT22;9657;45.940;12.840;2022-10-16T11:02:07;21.50;60.80
19050;DHT22;9657;45.940;12.840;2022-10-16T11:05:00;21.60;60.80
19050;DHT22;9657;45.940;12.840;2022-10-16T11:07:34;21.50;60.80
19050;DHT22;9657;45.940;12.840;2022-10-16T11:10:07;21.50;60.70
19050;DHT22;9657;45.940;12.840;2022-10-16T11:12:39;21.50;60.80
19050;DHT22;9657;45.940;12.840;2022-10-16T11:15:14;21.50;60.90
19050;DHT22;9657;45.940;12.840;2022-10-16T11:17:46;21.60;61.10
19050;DHT22;9657;45.940;12.840;2022-10-16T11:20:19;21.60;61.20
19050;DHT22;9657;45.940;12.840;2022-10-16T11:22:50;21.50;61.10
19050;DHT22;9657;45.940;12.840;2022-10-16T11:25:21;21.60;61.30
19050;DHT22;9657;45.940;12.840;2022-10-16T11:27:51;21.60;61.30
19050;DHT22;9657;45.940;12.840;2022-10-16T11:30:21;21.60;61.30
19050;DHT22;9657;45.940;12.840;2022-10-16T11:33:04;21.50;61.30
19050;DHT22;9657;45.940;12.840;2022-10-16T11:35:41;21.50;61.30
19050;DHT22;9657;45.940;12.840;2022-10-16T11:38:14;21.60;61.40
19050;DHT22;9657;45.940;12.840;2022-10-16T11:40:45;21.60;61.40
19050;DHT22;9657;45.940;12.840;2022-10-16T11:43:17;21.60;61.40
19050;DHT22;9657;45.940;12.840;2022-10-16T11:45:46;21.60;61.40
19050;DHT22;9657;45.940;12.840;2022-10-16T11:48:23;21.60;61.40
19050;DHT22;9657;45.940;12.840;2022-10-16T11:50:53;21.60;61.40
19050;DHT22;9657;45.940;12.840;2022-10-16T11:53:31;21.60;61.50
19050;DHT22;9657;45.940;12.840;2022-10-16T11:56:01;21.60;61.50
19050;DHT22;9657;45.940;12.840;2022-10-16T11:58:31;21.60;61.50
19050;DHT22;9657;45.940;12.840;2022-10-16T12:01:05;21.60;61.50
19050;DHT22;9657;45.940;12.840;2022-10-16T12:03:45;21.60;61.50
19050;DHT22;9657;45.940;12.840;2022-10-16T12:06:24;21.60;61.50
19050;DHT22;9657;45.940;12.840;2022-10-16T12:08:53;21.60;61.50
19050;DHT22;9657;45.940;12.840;2022-10-16T12:11:33;21.60;61.50
19050;DHT22;9657;45.940;12.840;2022-10-16T12:14:07;21.60;61.50
19050;DHT22;9657;45.940;12.840;2022-10-16T12:16:37;21.70;61.60
19050;DHT22;9657;45.940;12.840;2022-10-16T12:19:14;21.60;61.60
19050;DHT22;9657;45.940;12.840;2022-10-16T12:21:42;21.60;61.60
19050;DHT22;9657;45.940;12.840;2022-10-16T12:24:22;21.60;61.60
19050;DHT22;9657;45.940;12.840;2022-10-16T12:26:53;21.60;61.60
19050;DHT22;9657;45.940;12.840;2022-10-16T12:29:28;21.70;61.60
19050;DHT22;9657;45.940;12.840;2022-10-16T12:31:56;21.70;61.70
19050;DHT22;9657;45.940;12.840;2022-10-16T12:34:28;21.60;61.60
19050;DHT22;9657;45.940;12.840;2022-10-16T12:36:56;21.60;61.70
19050;DHT22;9657;45.940;12.840;2022-10-16T12:39:35;21.60;61.70
19050;DHT22;9657;45.940;12.840;2022-10-16T12:42:04;21.60;61.60
19050;DHT22;9657;45.940;12.840;2022-10-16T12:44:33;21.60;61.70
19050;DHT22;9657;45.940;12.840;2022-10-16T12:47:01;21.60;61.70
19050;DHT22;9657;45.940;12.840;2022-10-16T12:49:37;21.60;61.70
19050;DHT22;9657;45.940;12.840;2022-10-16T12:52:24;21.60;61.70
19050;DHT22;9657;45.940;12.840;2022-10-16T12:54:52;21.70;61.80
19050;DHT22;9657;45.940;12.840;2022-10-16T12:57:43;21.60;61.70
19050;DHT22;9657;45.940;12.840;2022-10-16T13:00:23;21.70;61.80
19050;DHT22;9657;45.940;12.840;2022-10-16T13:03:27;21.60;61.70
19050;DHT22;9657;45.940;12.840;2022-10-16T13:06:08;21.60;61.70
19050;DHT22;9657;45.940;12.840;2022-10-16T13:08:53;21.60;61.70
19050;DHT22;9657;45.940;12.840;2022-10-16T13:11:31;21.70;62.60
19050;DHT22;9657;45.940;12.840;2022-10-16T13:14:23;21.70;61.80
19050;DHT22;9657;45.940;12.840;2022-10-16T13:17:01;21.70;61.80
19050;DHT22;9657;45.940;12.840;2022-10-16T13:19:38;21.60;61.70
19050;DHT22;9657;45.940;12.840;2022-10-16T13:22:15;21.60;61.70
19050;DHT22;9657;45.940;12.840;2022-10-16T13:25:01;21.70;61.80
19050;DHT22;9657;45.940;12.840;2022-10-16T13:27:36;21.70;61.80
19050;DHT22;9657;45.940;12.840;2022-10-16T13:30:12;21.70;61.80
19050;DHT22;9657;45.940;12.840;2022-10-16T13:32:43;21.70;61.80
19050;DHT22;9657;45.940;12.840;2022-10-16T13:35:22;21.60;61.70
19050;DHT22;9657;45.940;12.840;2022-10-16T13:37:51;21.70;61.80
19050;DHT22;9657;45.940;12.840;2022-10-16T13:40:21;21.70;61.80
19050;DHT22;9657;45.940;12.840;2022-10-16T13:42:49;21.70;61.80
19050;DHT22;9657;45.940;12.840;2022-10-16T13:45:17;21.70;61.80
19050;DHT22;9657;45.940;12.840;2022-10-16T13:47:45;21.70;61.80
19050;DHT22;9657;45.940;12.840;2022-10-16T13:50:13;21.70;61.80
19050;DHT22;9657;45.940;12.840;2022-10-16T13:52:41;21.70;61.80
19050;DHT22;9657;45.940;12.840;2022-10-16T13:55:12;21.70;61.80
19050;DHT22;9657;45.940;12.840;2022-10-16T13:57:40;21.70;61.80
19050;DHT22;9657;45.940;12.840;2022-10-16T14:00:21;21.70;61.70
19050;DHT22;9657;45.940;12.840;2022-10-16T14:02:57;21.70;61.80
19050;DHT22;9657;45.940;12.840;2022-10-16T14:05:26;21.70;61.80
19050;DHT22;9657;45.940;12.840;2022-10-16T14:07:54;21.70;61.80
19050;DHT22;9657;45.940;12.840;2022-10-16T14:10:26;21.70;61.80
19050;DHT22;9657;45.940;12.840;2022-10-16T14:12:55;21.70;61.80
19050;DHT22;9657;45.940;12.840;2022-10-16T14:15:23;21.70;61.80
19050;DHT22;9657;45.940;12.840;2022-10-16T14:17:52;21.70;61.80
19050;DHT22;9657;45.940;12.840;2022-10-16T14:20:22;21.70;61.80
19050;DHT22;9657;45.940;12.840;2022-10-16T14:22:58;21.70;61.80
19050;DHT22;9657;45.940;12.840;2022-10-16T14:25:29;21.70;62.60
19050;DHT22;9657;45.940;12.840;2022-10-16T14:27:58;21.70;61.70
19050;DHT22;9657;45.940;12.840;2022-10-16T14:30:27;21.70;61.80
19050;DHT22;9657;45.940;12.840;2022-10-16T14:32:56;21.70;61.80
19050;DHT22;9657;45.940;12.840;2022-10-16T14:35:30;21.70;61.80
19050;DHT22;9657;45.940;12.840;2022-10-16T14:37:59;21.70;61.80
19050;DHT22;9657;45.940;12.840;2022-10-16T14:40:29;21.70;61.80
19050;DHT22;9657;45.940;12.840;2022-10-16T14:42:58;21.70;61.80
19050;DHT22;9657;45.940;12.840;2022-10-16T14:45:27;21.70;61.80
19050;DHT22;9657;45.940;12.840;2022-10-16T14:47:57;21.70;61.80
19050;DHT22;9657;45.940;12.840;2022-10-16T14:50:25;21.70;61.80
19050;DHT22;9657;45.940;12.840;2022-10-16T14:52:52;21.70;61.80
19050;DHT22;9657;45.940;12.840;2022-10-16T14:55:19;21.70;61.80
19050;DHT22;9657;45.940;12.840;2022-10-16T14:57:48;21.70;61.80
19050;DHT22;9657;45.940;12.840;2022-10-16T15:00:18;21.80;61.90
19050;DHT22;9657;45.940;12.840;2022-10-16T15:02:46;21.70;61.80
19050;DHT22;9657;45.940;12.840;2022-10-16T15:05:17;21.70;61.80
19050;DHT22;9657;45.940;12.840;2022-10-16T15:07:45;21.70;61.80
19050;DHT22;9657;45.940;12.840;2022-10-16T15:10:12;21.70;61.80
19050;DHT22;9657;45.940;12.840;2022-10-16T15:12:40;21.70;61.80
19050;DHT22;9657;45.940;12.840;2022-10-16T15:15:28;21.80;61.80
19050;DHT22;9657;45.940;12.840;2022-10-16T15:17:57;21.70;61.80
19050;DHT22;9657;45.940;12.840;2022-10-16T15:20:27;21.70;61.80
19050;DHT22;9657;45.940;12.840;2022-10-16T15:22:54;21.70;61.90
19050;DHT22;9657;45.940;12.840;2022-10-16T15:25:30;21.70;61.80
19050;DHT22;9657;45.940;12.840;2022-10-16T15:27:58;21.80;61.90
19050;DHT22;9657;45.940;12.840;2022-10-16T15:30:25;21.70;61.90
19050;DHT22;9657;45.940;12.840;2022-10-16T15:32:54;21.70;61.90
19050;DHT22;9657;45.940;12.840;2022-10-16T15:35:21;21.70;61.90
19050;DHT22;9657;45.940;12.840;2022-10-16T15:37:48;21.80;62.00
19050;DHT22;9657;45.940;12.840;2022-10-16T15:40:16;21.70;62.00
19050;DHT22;9657;45.940;12.840;2022-10-16T15:42:44;21.70;62.00
19050;DHT22;9657;45.940;12.840;2022-10-16T15:45:12;21.70;62.00
19050;DHT22;9657;45.940;12.840;2022-10-16T15:47:40;21.70;62.00
19050;DHT22;9657;45.940;12.840;2022-10-16T15:50:10;21.70;62.00
19050;DHT22;9657;45.940;12.840;2022-10-16T15:52:37;21.80;62.10
19050;DHT22;9657;45.940;12.840;2022-10-16T15:55:07;21.80;62.10
19050;DHT22;9657;45.940;12.840;2022-10-16T15:57:34;21.80;62.10